Terminal Aerodrome Forecast
Issued by NWS Charleston, WV

Current Version | Previous Version | Graphics & Text | Print | Product List | Glossary On
Versions: 1 2 3 4 5 6 7 8 9 10 11 12 13 14 15 16 17 18 19 20
000
FTUS41 KRLX 262300
TAFHTS
TAF
KHTS 262337Z 2700/2724 33007KT P6SM OVC020
     FM270600 33005KT P6SM BKN025
     FM271000 33005KT P6SM SKC
     FM271700 33007KT P6SM SCT040=

USA.gov is the U.S. government's official web portal to all federal, state and local government web resources and services.